sensor_id;sensor_type;location;lat;lon;timestamp;P1;durP1;ratioP1;P2;durP2;ratioP2
68010;SDS011;54794;48.348;7.878;2022-12-07T00:01:41;10.90;;;6.35;;
68010;SDS011;54794;48.348;7.878;2022-12-07T00:04:48;10.48;;;6.20;;
68010;SDS011;54794;48.348;7.878;2022-12-07T00:08:01;9.63;;;5.97;;
68010;SDS011;54794;48.348;7.878;2022-12-07T00:11:21;8.93;;;5.82;;
68010;SDS011;54794;48.348;7.878;2022-12-07T00:14:46;11.73;;;7.15;;
68010;SDS011;54794;48.348;7.878;2022-12-07T00:17:44;9.32;;;5.50;;
68010;SDS011;54794;48.348;7.878;2022-12-07T00:30:22;8.75;;;5.88;;
68010;SDS011;54794;48.348;7.878;2022-12-07T00:33:48;9.55;;;5.88;;
68010;SDS011;54794;48.348;7.878;2022-12-07T00:37:11;12.50;;;7.05;;
68010;SDS011;54794;48.348;7.878;2022-12-07T00:40:12;8.98;;;5.85;;
68010;SDS011;54794;48.348;7.878;2022-12-07T00:43:28;10.13;;;6.47;;
68010;SDS011;54794;48.348;7.878;2022-12-07T00:46:56;8.40;;;5.22;;
68010;SDS011;54794;48.348;7.878;2022-12-07T00:49:57;8.25;;;5.18;;
68010;SDS011;54794;48.348;7.878;2022-12-07T00:53:08;7.07;;;4.70;;
68010;SDS011;54794;48.348;7.878;2022-12-07T00:56:04;8.02;;;4.50;;
68010;SDS011;54794;48.348;7.878;2022-12-07T00:59:23;7.75;;;4.90;;
68010;SDS011;54794;48.348;7.878;2022-12-07T01:02:30;8.93;;;4.97;;
68010;SDS011;54794;48.348;7.878;2022-12-07T01:05:52;7.22;;;4.43;;
68010;SDS011;54794;48.348;7.878;2022-12-07T01:09:03;6.82;;;4.43;;
68010;SDS011;54794;48.348;7.878;2022-12-07T01:12:17;7.40;;;4.47;;
68010;SDS011;54794;48.348;7.878;2022-12-07T01:15:30;6.65;;;3.83;;
68010;SDS011;54794;48.348;7.878;2022-12-07T01:18:49;7.82;;;4.75;;
68010;SDS011;54794;48.348;7.878;2022-12-07T01:21:38;6.80;;;3.95;;
68010;SDS011;54794;48.348;7.878;2022-12-07T01:24:36;6.68;;;4.40;;
68010;SDS011;54794;48.348;7.878;2022-12-07T01:27:44;7.43;;;4.65;;
68010;SDS011;54794;48.348;7.878;2022-12-07T01:30:34;8.07;;;4.65;;
68010;SDS011;54794;48.348;7.878;2022-12-07T01:36:45;6.47;;;4.00;;
68010;SDS011;54794;48.348;7.878;2022-12-07T01:40:18;7.07;;;4.38;;
68010;SDS011;54794;48.348;7.878;2022-12-07T01:47:14;5.90;;;3.63;;
68010;SDS011;54794;48.348;7.878;2022-12-07T01:50:30;6.55;;;3.60;;
68010;SDS011;54794;48.348;7.878;2022-12-07T01:53:26;8.45;;;3.97;;
68010;SDS011;54794;48.348;7.878;2022-12-07T01:55:57;7.25;;;4.90;;
68010;SDS011;54794;48.348;7.878;2022-12-07T02:00:52;7.03;;;3.78;;
68010;SDS011;54794;48.348;7.878;2022-12-07T02:03:22;6.25;;;4.30;;
68010;SDS011;54794;48.348;7.878;2022-12-07T02:06:02;6.00;;;3.83;;
68010;SDS011;54794;48.348;7.878;2022-12-07T02:08:31;7.43;;;4.32;;
68010;SDS011;54794;48.348;7.878;2022-12-07T02:11:00;6.60;;;3.83;;
68010;SDS011;54794;48.348;7.878;2022-12-07T02:13:30;6.43;;;3.65;;
68010;SDS011;54794;48.348;7.878;2022-12-07T02:30:22;5.97;;;3.38;;
68010;SDS011;54794;48.348;7.878;2022-12-07T02:32:59;6.60;;;3.88;;
68010;SDS011;54794;48.348;7.878;2022-12-07T02:35:39;6.95;;;3.70;;
68010;SDS011;54794;48.348;7.878;2022-12-07T02:41:07;7.20;;;4.30;;
68010;SDS011;54794;48.348;7.878;2022-12-07T02:43:52;4.85;;;3.25;;
68010;SDS011;54794;48.348;7.878;2022-12-07T02:46:27;8.10;;;4.40;;
68010;SDS011;54794;48.348;7.878;2022-12-07T02:49:00;6.35;;;3.63;;
68010;SDS011;54794;48.348;7.878;2022-12-07T02:51:30;5.57;;;3.80;;
68010;SDS011;54794;48.348;7.878;2022-12-07T02:53:58;6.78;;;4.07;;
68010;SDS011;54794;48.348;7.878;2022-12-07T03:11:18;4.85;;;3.10;;
68010;SDS011;54794;48.348;7.878;2022-12-07T03:14:39;4.80;;;3.15;;
68010;SDS011;54794;48.348;7.878;2022-12-07T03:17:35;3.90;;;2.53;;
68010;SDS011;54794;48.348;7.878;2022-12-07T03:20:09;5.78;;;3.42;;
68010;SDS011;54794;48.348;7.878;2022-12-07T03:22:42;5.40;;;3.22;;
68010;SDS011;54794;48.348;7.878;2022-12-07T03:25:11;6.05;;;3.30;;
68010;SDS011;54794;48.348;7.878;2022-12-07T03:27:52;5.90;;;3.53;;
68010;SDS011;54794;48.348;7.878;2022-12-07T03:30:33;5.07;;;3.17;;
68010;SDS011;54794;48.348;7.878;2022-12-07T03:33:16;4.05;;;2.67;;
68010;SDS011;54794;48.348;7.878;2022-12-07T03:35:59;4.97;;;2.87;;
68010;SDS011;54794;48.348;7.878;2022-12-07T03:38:40;4.05;;;2.75;;
68010;SDS011;54794;48.348;7.878;2022-12-07T03:41:19;5.07;;;3.08;;
68010;SDS011;54794;48.348;7.878;2022-12-07T03:43:55;5.43;;;3.15;;
68010;SDS011;54794;48.348;7.878;2022-12-07T03:49:20;3.70;;;2.47;;
68010;SDS011;54794;48.348;7.878;2022-12-07T03:55:13;3.75;;;2.45;;
68010;SDS011;54794;48.348;7.878;2022-12-07T03:57:47;4.25;;;2.67;;
68010;SDS011;54794;48.348;7.878;2022-12-07T04:00:19;4.88;;;2.85;;
68010;SDS011;54794;48.348;7.878;2022-12-07T04:02:46;4.70;;;3.00;;
68010;SDS011;54794;48.348;7.878;2022-12-07T04:05:13;5.07;;;3.05;;
68010;SDS011;54794;48.348;7.878;2022-12-07T04:07:40;5.28;;;3.17;;
68010;SDS011;54794;48.348;7.878;2022-12-07T04:10:08;4.30;;;2.80;;
68010;SDS011;54794;48.348;7.878;2022-12-07T04:15:02;3.30;;;2.25;;
68010;SDS011;54794;48.348;7.878;2022-12-07T04:17:30;3.58;;;2.22;;
68010;SDS011;54794;48.348;7.878;2022-12-07T04:19:57;4.03;;;2.85;;
68010;SDS011;54794;48.348;7.878;2022-12-07T04:22:24;4.30;;;2.65;;
68010;SDS011;54794;48.348;7.878;2022-12-07T04:24:51;4.18;;;2.70;;
68010;SDS011;54794;48.348;7.878;2022-12-07T04:27:18;4.83;;;2.47;;
68010;SDS011;54794;48.348;7.878;2022-12-07T04:29:44;4.27;;;2.67;;
68010;SDS011;54794;48.348;7.878;2022-12-07T04:32:11;4.28;;;2.85;;
68010;SDS011;54794;48.348;7.878;2022-12-07T04:34:38;4.97;;;2.65;;
68010;SDS011;54794;48.348;7.878;2022-12-07T04:37:05;4.85;;;2.78;;
68010;SDS011;54794;48.348;7.878;2022-12-07T04:39:32;3.70;;;2.38;;
68010;SDS011;54794;48.348;7.878;2022-12-07T04:44:28;3.03;;;1.90;;
68010;SDS011;54794;48.348;7.878;2022-12-07T04:46:55;3.70;;;2.35;;
68010;SDS011;54794;48.348;7.878;2022-12-07T04:51:51;2.78;;;1.70;;
68010;SDS011;54794;48.348;7.878;2022-12-07T04:54:18;4.18;;;2.75;;
68010;SDS011;54794;48.348;7.878;2022-12-07T04:56:45;5.57;;;2.90;;
68010;SDS011;54794;48.348;7.878;2022-12-07T04:59:12;4.15;;;2.92;;
68010;SDS011;54794;48.348;7.878;2022-12-07T05:01:41;4.35;;;2.70;;
68010;SDS011;54794;48.348;7.878;2022-12-07T05:04:09;5.60;;;2.78;;
68010;SDS011;54794;48.348;7.878;2022-12-07T05:06:36;4.25;;;2.75;;
68010;SDS011;54794;48.348;7.878;2022-12-07T05:09:04;3.45;;;2.53;;
68010;SDS011;54794;48.348;7.878;2022-12-07T05:11:31;4.40;;;2.72;;
68010;SDS011;54794;48.348;7.878;2022-12-07T05:14:14;3.55;;;2.30;;
68010;SDS011;54794;48.348;7.878;2022-12-07T05:16:47;4.85;;;3.22;;
68010;SDS011;54794;48.348;7.878;2022-12-07T05:19:17;5.10;;;3.38;;
68010;SDS011;54794;48.348;7.878;2022-12-07T05:21:45;3.72;;;2.20;;
68010;SDS011;54794;48.348;7.878;2022-12-07T05:24:16;3.55;;;2.45;;
68010;SDS011;54794;48.348;7.878;2022-12-07T05:26:43;5.75;;;2.65;;
68010;SDS011;54794;48.348;7.878;2022-12-07T05:29:15;4.05;;;2.92;;
68010;SDS011;54794;48.348;7.878;2022-12-07T05:31:43;3.97;;;2.72;;
68010;SDS011;54794;48.348;7.878;2022-12-07T05:34:12;4.32;;;2.78;;
68010;SDS011;54794;48.348;7.878;2022-12-07T05:39:10;4.50;;;2.78;;
68010;SDS011;54794;48.348;7.878;2022-12-07T05:41:38;3.35;;;2.30;;
68010;SDS011;54794;48.348;7.878;2022-12-07T05:44:23;3.55;;;2.38;;
68010;SDS011;54794;48.348;7.878;2022-12-07T05:46:51;3.92;;;2.60;;
68010;SDS011;54794;48.348;7.878;2022-12-07T05:49:18;3.97;;;2.28;;
68010;SDS011;54794;48.348;7.878;2022-12-07T05:54:14;3.13;;;2.00;;
68010;SDS011;54794;48.348;7.878;2022-12-07T05:59:12;3.05;;;1.95;;
68010;SDS011;54794;48.348;7.878;2022-12-07T06:02:01;3.55;;;2.17;;
68010;SDS011;54794;48.348;7.878;2022-12-07T06:04:39;4.57;;;2.40;;
68010;SDS011;54794;48.348;7.878;2022-12-07T06:07:09;3.28;;;2.17;;
68010;SDS011;54794;48.348;7.878;2022-12-07T06:09:41;3.10;;;2.30;;
68010;SDS011;54794;48.348;7.878;2022-12-07T06:12:14;3.97;;;2.38;;
68010;SDS011;54794;48.348;7.878;2022-12-07T06:15:00;3.20;;;2.10;;
68010;SDS011;54794;48.348;7.878;2022-12-07T06:17:28;2.78;;;1.90;;
68010;SDS011;54794;48.348;7.878;2022-12-07T06:22:26;2.97;;;2.00;;
68010;SDS011;54794;48.348;7.878;2022-12-07T06:24:55;3.10;;;2.08;;
68010;SDS011;54794;48.348;7.878;2022-12-07T06:27:33;4.07;;;2.30;;
68010;SDS011;54794;48.348;7.878;2022-12-07T06:30:04;4.40;;;2.72;;
68010;SDS011;54794;48.348;7.878;2022-12-07T06:32:35;3.95;;;2.53;;
68010;SDS011;54794;48.348;7.878;2022-12-07T06:35:04;4.07;;;2.60;;
68010;SDS011;54794;48.348;7.878;2022-12-07T06:37:32;4.55;;;2.60;;
68010;SDS011;54794;48.348;7.878;2022-12-07T06:39:59;4.40;;;2.50;;
68010;SDS011;54794;48.348;7.878;2022-12-07T06:42:28;3.38;;;2.47;;
68010;SDS011;54794;48.348;7.878;2022-12-07T06:44:55;3.78;;;2.30;;
68010;SDS011;54794;48.348;7.878;2022-12-07T06:50:06;3.50;;;2.15;;
68010;SDS011;54794;48.348;7.878;2022-12-07T06:52:35;3.30;;;2.08;;
68010;SDS011;54794;48.348;7.878;2022-12-07T06:55:02;3.05;;;2.00;;
68010;SDS011;54794;48.348;7.878;2022-12-07T06:57:30;2.80;;;1.85;;
68010;SDS011;54794;48.348;7.878;2022-12-07T06:59:57;4.28;;;2.38;;
68010;SDS011;54794;48.348;7.878;2022-12-07T07:02:26;3.92;;;2.55;;
68010;SDS011;54794;48.348;7.878;2022-12-07T07:04:54;4.03;;;2.53;;
68010;SDS011;54794;48.348;7.878;2022-12-07T07:07:21;3.80;;;2.22;;
68010;SDS011;54794;48.348;7.878;2022-12-07T07:12:16;3.47;;;2.30;;
68010;SDS011;54794;48.348;7.878;2022-12-07T07:14:43;3.88;;;2.53;;
68010;SDS011;54794;48.348;7.878;2022-12-07T07:17:10;5.03;;;2.78;;
68010;SDS011;54794;48.348;7.878;2022-12-07T07:22:05;2.72;;;1.83;;
68010;SDS011;54794;48.348;7.878;2022-12-07T07:24:33;3.38;;;2.25;;
68010;SDS011;54794;48.348;7.878;2022-12-07T07:27:00;4.95;;;2.83;;
68010;SDS011;54794;48.348;7.878;2022-12-07T07:29:28;4.18;;;2.63;;
68010;SDS011;54794;48.348;7.878;2022-12-07T07:34:57;3.70;;;2.42;;
68010;SDS011;54794;48.348;7.878;2022-12-07T07:37:25;5.13;;;2.65;;
68010;SDS011;54794;48.348;7.878;2022-12-07T07:39:55;5.00;;;2.80;;
68010;SDS011;54794;48.348;7.878;2022-12-07T07:42:23;3.88;;;2.55;;
68010;SDS011;54794;48.348;7.878;2022-12-07T07:47:18;2.88;;;1.80;;
68010;SDS011;54794;48.348;7.878;2022-12-07T07:49:46;3.97;;;2.70;;
68010;SDS011;54794;48.348;7.878;2022-12-07T07:54:41;2.95;;;1.85;;
68010;SDS011;54794;48.348;7.878;2022-12-07T07:57:10;5.25;;;2.53;;
68010;SDS011;54794;48.348;7.878;2022-12-07T07:59:37;3.70;;;2.35;;
68010;SDS011;54794;48.348;7.878;2022-12-07T08:02:05;3.17;;;2.13;;
68010;SDS011;54794;48.348;7.878;2022-12-07T08:04:32;5.25;;;2.67;;
68010;SDS011;54794;48.348;7.878;2022-12-07T08:07:00;5.18;;;2.78;;
68010;SDS011;54794;48.348;7.878;2022-12-07T08:09:27;4.75;;;3.00;;
68010;SDS011;54794;48.348;7.878;2022-12-07T08:14:22;3.25;;;1.95;;
68010;SDS011;54794;48.348;7.878;2022-12-07T08:16:50;3.75;;;2.20;;
68010;SDS011;54794;48.348;7.878;2022-12-07T08:19:18;6.10;;;2.97;;
68010;SDS011;54794;48.348;7.878;2022-12-07T08:21:45;3.38;;;2.33;;
68010;SDS011;54794;48.348;7.878;2022-12-07T08:24:13;5.47;;;2.78;;
68010;SDS011;54794;48.348;7.878;2022-12-07T08:26:41;5.03;;;2.78;;
68010;SDS011;54794;48.348;7.878;2022-12-07T08:29:08;4.65;;;2.58;;
68010;SDS011;54794;48.348;7.878;2022-12-07T09:12:04;4.75;;;2.83;;
68010;SDS011;54794;48.348;7.878;2022-12-07T09:14:31;4.72;;;2.85;;
68010;SDS011;54794;48.348;7.878;2022-12-07T09:17:11;4.38;;;2.85;;
68010;SDS011;54794;48.348;7.878;2022-12-07T09:19:48;4.95;;;3.00;;
68010;SDS011;54794;48.348;7.878;2022-12-07T09:28:44;4.85;;;2.67;;
68010;SDS011;54794;48.348;7.878;2022-12-07T09:31:26;4.78;;;2.60;;
68010;SDS011;54794;48.348;7.878;2022-12-07T09:34:09;4.25;;;3.00;;
68010;SDS011;54794;48.348;7.878;2022-12-07T09:36:54;4.05;;;2.72;;
68010;SDS011;54794;48.348;7.878;2022-12-07T09:39:39;3.97;;;2.55;;
68010;SDS011;54794;48.348;7.878;2022-12-07T09:45:48;4.82;;;2.58;;
68010;SDS011;54794;48.348;7.878;2022-12-07T09:55:59;4.30;;;2.58;;
68010;SDS011;54794;48.348;7.878;2022-12-07T09:58:40;4.15;;;2.53;;
68010;SDS011;54794;48.348;7.878;2022-12-07T10:06:58;4.60;;;2.67;;
68010;SDS011;54794;48.348;7.878;2022-12-07T10:13:39;4.85;;;2.75;;
68010;SDS011;54794;48.348;7.878;2022-12-07T10:16:41;4.43;;;2.70;;
68010;SDS011;54794;48.348;7.878;2022-12-07T10:33:36;4.97;;;2.97;;
68010;SDS011;54794;48.348;7.878;2022-12-07T10:40:26;3.80;;;2.40;;
68010;SDS011;54794;48.348;7.878;2022-12-07T11:30:00;6.88;;;3.92;;
68010;SDS011;54794;48.348;7.878;2022-12-07T11:42:33;25.00;;;13.35;;
68010;SDS011;54794;48.348;7.878;2022-12-07T11:52:47;7.35;;;4.97;;
68010;SDS011;54794;48.348;7.878;2022-12-07T11:56:10;6.18;;;3.60;;
68010;SDS011;54794;48.348;7.878;2022-12-07T12:02:26;6.53;;;3.57;;
68010;SDS011;54794;48.348;7.878;2022-12-07T12:05:45;4.93;;;3.17;;
68010;SDS011;54794;48.348;7.878;2022-12-07T12:08:29;5.75;;;3.53;;
68010;SDS011;54794;48.348;7.878;2022-12-07T12:50:45;4.90;;;3.03;;
68010;SDS011;54794;48.348;7.878;2022-12-07T12:53:31;3.67;;;2.58;;
68010;SDS011;54794;48.348;7.878;2022-12-07T13:07:11;4.50;;;2.70;;
68010;SDS011;54794;48.348;7.878;2022-12-07T13:10:37;5.15;;;2.95;;
68010;SDS011;54794;48.348;7.878;2022-12-07T13:16:42;3.72;;;2.28;;
68010;SDS011;54794;48.348;7.878;2022-12-07T13:22:54;4.35;;;2.55;;
68010;SDS011;54794;48.348;7.878;2022-12-07T13:25:40;4.28;;;2.70;;
68010;SDS011;54794;48.348;7.878;2022-12-07T13:31:52;5.00;;;2.70;;
68010;SDS011;54794;48.348;7.878;2022-12-07T13:38:36;2.92;;;1.90;;
68010;SDS011;54794;48.348;7.878;2022-12-07T13:41:17;3.08;;;1.85;;
68010;SDS011;54794;48.348;7.878;2022-12-07T13:44:08;4.00;;;2.00;;
68010;SDS011;54794;48.348;7.878;2022-12-07T13:46:48;3.47;;;2.15;;
68010;SDS011;54794;48.348;7.878;2022-12-07T13:53:33;3.70;;;2.35;;
68010;SDS011;54794;48.348;7.878;2022-12-07T13:57:02;5.07;;;2.67;;
68010;SDS011;54794;48.348;7.878;2022-12-07T13:59:44;4.40;;;2.70;;
68010;SDS011;54794;48.348;7.878;2022-12-07T14:02:29;2.75;;;1.95;;
68010;SDS011;54794;48.348;7.878;2022-12-07T14:05:24;3.88;;;2.38;;
68010;SDS011;54794;48.348;7.878;2022-12-07T14:09:19;7.88;;;5.40;;
68010;SDS011;54794;48.348;7.878;2022-12-07T14:12:05;5.45;;;3.78;;
68010;SDS011;54794;48.348;7.878;2022-12-07T14:14:48;7.05;;;4.28;;
68010;SDS011;54794;48.348;7.878;2022-12-07T14:17:29;5.32;;;3.33;;
68010;SDS011;54794;48.348;7.878;2022-12-07T14:24:18;4.65;;;2.47;;
68010;SDS011;54794;48.348;7.878;2022-12-07T14:27:01;2.80;;;1.85;;
68010;SDS011;54794;48.348;7.878;2022-12-07T14:29:43;4.80;;;2.55;;
68010;SDS011;54794;48.348;7.878;2022-12-07T14:35:16;1.88;;;1.27;;
68010;SDS011;54794;48.348;7.878;2022-12-07T14:37:59;4.10;;;2.20;;
68010;SDS011;54794;48.348;7.878;2022-12-07T14:40:44;3.55;;;2.30;;
68010;SDS011;54794;48.348;7.878;2022-12-07T14:43:23;4.28;;;2.65;;
68010;SDS011;54794;48.348;7.878;2022-12-07T14:48:52;3.30;;;2.05;;
68010;SDS011;54794;48.348;7.878;2022-12-07T14:51:39;3.88;;;1.88;;
68010;SDS011;54794;48.348;7.878;2022-12-07T14:57:46;4.70;;;2.75;;
68010;SDS011;54794;48.348;7.878;2022-12-07T15:00:13;8.88;;;4.55;;
68010;SDS011;54794;48.348;7.878;2022-12-07T15:02:52;16.73;;;7.13;;
68010;SDS011;54794;48.348;7.878;2022-12-07T15:05:20;17.23;;;8.18;;
68010;SDS011;54794;48.348;7.878;2022-12-07T15:07:54;13.80;;;6.30;;
68010;SDS011;54794;48.348;7.878;2022-12-07T16:39:30;4.60;;;2.08;;
68010;SDS011;54794;48.348;7.878;2022-12-07T16:42:15;4.95;;;2.58;;
68010;SDS011;54794;48.348;7.878;2022-12-07T16:44:57;3.85;;;2.15;;
68010;SDS011;54794;48.348;7.878;2022-12-07T16:47:40;4.90;;;2.35;;
68010;SDS011;54794;48.348;7.878;2022-12-07T16:50:25;3.50;;;2.00;;
68010;SDS011;54794;48.348;7.878;2022-12-07T16:53:04;3.65;;;2.22;;
68010;SDS011;54794;48.348;7.878;2022-12-07T16:55:50;3.65;;;2.10;;
68010;SDS011;54794;48.348;7.878;2022-12-07T16:58:33;3.22;;;2.10;;
68010;SDS011;54794;48.348;7.878;2022-12-07T17:01:21;3.22;;;1.98;;
68010;SDS011;54794;48.348;7.878;2022-12-07T17:07:22;2.95;;;1.83;;
68010;SDS011;54794;48.348;7.878;2022-12-07T17:12:52;4.78;;;2.03;;
68010;SDS011;54794;48.348;7.878;2022-12-07T17:15:40;3.65;;;2.20;;
68010;SDS011;54794;48.348;7.878;2022-12-07T17:21:44;3.35;;;2.20;;
68010;SDS011;54794;48.348;7.878;2022-12-07T17:24:32;3.80;;;2.50;;
68010;SDS011;54794;48.348;7.878;2022-12-07T17:27:15;4.07;;;2.67;;
68010;SDS011;54794;48.348;7.878;2022-12-07T17:30:02;4.40;;;2.65;;
68010;SDS011;54794;48.348;7.878;2022-12-07T17:32:44;5.60;;;2.63;;
68010;SDS011;54794;48.348;7.878;2022-12-07T17:35:26;4.45;;;2.65;;
68010;SDS011;54794;48.348;7.878;2022-12-07T17:38:12;4.97;;;3.10;;
68010;SDS011;54794;48.348;7.878;2022-12-07T17:40:55;4.40;;;2.88;;
68010;SDS011;54794;48.348;7.878;2022-12-07T17:43:40;5.03;;;3.00;;
68010;SDS011;54794;48.348;7.878;2022-12-07T17:46:19;4.93;;;3.25;;
68010;SDS011;54794;48.348;7.878;2022-12-07T17:48:49;4.53;;;2.88;;
68010;SDS011;54794;48.348;7.878;2022-12-07T17:51:19;4.93;;;2.83;;
68010;SDS011;54794;48.348;7.878;2022-12-07T18:00:01;4.28;;;2.65;;
68010;SDS011;54794;48.348;7.878;2022-12-07T18:02:39;3.80;;;2.25;;
68010;SDS011;54794;48.348;7.878;2022-12-07T18:10:58;4.82;;;2.72;;
68010;SDS011;54794;48.348;7.878;2022-12-07T18:13:44;4.38;;;2.67;;
68010;SDS011;54794;48.348;7.878;2022-12-07T18:16:24;3.47;;;2.55;;
68010;SDS011;54794;48.348;7.878;2022-12-07T18:32:10;4.43;;;2.70;;
68010;SDS011;54794;48.348;7.878;2022-12-07T18:37:39;4.97;;;3.00;;
68010;SDS011;54794;48.348;7.878;2022-12-07T18:40:09;5.88;;;3.45;;
68010;SDS011;54794;48.348;7.878;2022-12-07T18:45:46;5.75;;;3.50;;
68010;SDS011;54794;48.348;7.878;2022-12-07T18:48:28;5.28;;;3.05;;
68010;SDS011;54794;48.348;7.878;2022-12-07T18:51:08;5.35;;;3.65;;
68010;SDS011;54794;48.348;7.878;2022-12-07T18:53:56;4.90;;;2.90;;
68010;SDS011;54794;48.348;7.878;2022-12-07T19:04:12;4.72;;;2.78;;
68010;SDS011;54794;48.348;7.878;2022-12-07T19:10:20;4.65;;;2.65;;
68010;SDS011;54794;48.348;7.878;2022-12-07T19:16:35;3.45;;;2.50;;
68010;SDS011;54794;48.348;7.878;2022-12-07T19:19:54;4.80;;;2.70;;
68010;SDS011;54794;48.348;7.878;2022-12-07T19:30:55;4.38;;;2.60;;
68010;SDS011;54794;48.348;7.878;2022-12-07T19:41:45;4.57;;;2.55;;
68010;SDS011;54794;48.348;7.878;2022-12-07T19:44:14;4.00;;;2.53;;
68010;SDS011;54794;48.348;7.878;2022-12-07T19:46:49;5.22;;;2.97;;
68010;SDS011;54794;48.348;7.878;2022-12-07T19:49:38;4.70;;;2.53;;
68010;SDS011;54794;48.348;7.878;2022-12-07T19:58:06;4.97;;;2.75;;
68010;SDS011;54794;48.348;7.878;2022-12-07T20:00:52;3.75;;;2.63;;
68010;SDS011;54794;48.348;7.878;2022-12-07T20:03:34;4.32;;;2.70;;
68010;SDS011;54794;48.348;7.878;2022-12-07T20:06:05;3.85;;;2.42;;
68010;SDS011;54794;48.348;7.878;2022-12-07T20:08:39;4.03;;;2.70;;
68010;SDS011;54794;48.348;7.878;2022-12-07T20:11:06;4.38;;;2.83;;
68010;SDS011;54794;48.348;7.878;2022-12-07T20:14:29;4.22;;;2.47;;
68010;SDS011;54794;48.348;7.878;2022-12-07T20:17:15;4.05;;;2.67;;
68010;SDS011;54794;48.348;7.878;2022-12-07T20:19:57;6.63;;;2.72;;
68010;SDS011;54794;48.348;7.878;2022-12-07T20:22:40;7.05;;;3.80;;
68010;SDS011;54794;48.348;7.878;2022-12-07T20:25:25;4.63;;;2.83;;
68010;SDS011;54794;48.348;7.878;2022-12-07T20:28:11;5.05;;;3.25;;
68010;SDS011;54794;48.348;7.878;2022-12-07T20:30:51;5.20;;;3.20;;
68010;SDS011;54794;48.348;7.878;2022-12-07T20:33:37;6.18;;;3.88;;
68010;SDS011;54794;48.348;7.878;2022-12-07T20:36:20;5.35;;;3.15;;
68010;SDS011;54794;48.348;7.878;2022-12-07T20:39:06;4.95;;;3.00;;
68010;SDS011;54794;48.348;7.878;2022-12-07T20:41:51;4.90;;;2.90;;
68010;SDS011;54794;48.348;7.878;2022-12-07T20:45:13;4.93;;;3.13;;
68010;SDS011;54794;48.348;7.878;2022-12-07T20:47:59;5.03;;;3.35;;
68010;SDS011;54794;48.348;7.878;2022-12-07T20:50:41;6.30;;;3.47;;
68010;SDS011;54794;48.348;7.878;2022-12-07T20:53:24;5.00;;;3.10;;
68010;SDS011;54794;48.348;7.878;2022-12-07T21:04:24;3.22;;;2.20;;
68010;SDS011;54794;48.348;7.878;2022-12-07T21:51:29;4.00;;;2.55;;
68010;SDS011;54794;48.348;7.878;2022-12-07T22:18:06;4.03;;;2.40;;
68010;SDS011;54794;48.348;7.878;2022-12-07T22:33:07;3.35;;;2.08;;
68010;SDS011;54794;48.348;7.878;2022-12-07T22:35:52;2.65;;;1.88;;
68010;SDS011;54794;48.348;7.878;2022-12-07T22:38:34;3.63;;;1.98;;
68010;SDS011;54794;48.348;7.878;2022-12-07T22:44:42;3.10;;;1.85;;
68010;SDS011;54794;48.348;7.878;2022-12-07T22:47:27;3.78;;;2.33;;
68010;SDS011;54794;48.348;7.878;2022-12-07T22:50:09;4.20;;;2.38;;
68010;SDS011;54794;48.348;7.878;2022-12-07T22:52:55;4.05;;;2.55;;
68010;SDS011;54794;48.348;7.878;2022-12-07T22:55:40;4.53;;;2.72;;
68010;SDS011;54794;48.348;7.878;2022-12-07T22:58:22;4.95;;;2.80;;
68010;SDS011;54794;48.348;7.878;2022-12-07T23:03:47;4.55;;;2.47;;
68010;SDS011;54794;48.348;7.878;2022-12-07T23:14:42;3.25;;;2.05;;
68010;SDS011;54794;48.348;7.878;2022-12-07T23:18:10;3.05;;;1.70;;
68010;SDS011;54794;48.348;7.878;2022-12-07T23:20:53;2.92;;;1.95;;
68010;SDS011;54794;48.348;7.878;2022-12-07T23:23:34;4.07;;;2.20;;
68010;SDS011;54794;48.348;7.878;2022-12-07T23:26:19;4.72;;;2.03;;
68010;SDS011;54794;48.348;7.878;2022-12-07T23:29:04;3.00;;;1.77;;
68010;SDS011;54794;48.348;7.878;2022-12-07T23:31:49;2.95;;;1.88;;
68010;SDS011;54794;48.348;7.878;2022-12-07T23:34:32;4.32;;;1.85;;
68010;SDS011;54794;48.348;7.878;2022-12-07T23:37:14;3.53;;;2.20;;
68010;SDS011;54794;48.348;7.878;2022-12-07T23:39:57;3.15;;;1.88;;
68010;SDS011;54794;48.348;7.878;2022-12-07T23:42:39;3.35;;;1.95;;
68010;SDS011;54794;48.348;7.878;2022-12-07T23:45:28;3.75;;;2.08;;
68010;SDS011;54794;48.348;7.878;2022-12-07T23:51:35;3.58;;;2.08;;
68010;SDS011;54794;48.348;7.878;2022-12-07T23:54:20;3.00;;;1.77;;
68010;SDS011;54794;48.348;7.878;2022-12-07T23:57:05;3.28;;;1.90;;
68010;SDS011;54794;48.348;7.878;2022-12-07T23:59:47;3.80;;;1.98;;
